Time;durP1;ratioP1;P1;durP2;ratioP2;P2;SDS_P1;SDS_P2;PMS_P1;PMS_P2;Temp;Humidity;BMP_temperature;BMP_pressure;BME280_temperature;BME280_humidity;BME280_pressure;Samples;Min_cycle;Max_cycle;Signal;HPM_P1;HPM_P2
2022/03/28 00:02:14;;;;;;;15.55;6.85;;;;;;;4.10;70.72;98273.50;5025202;28;20515;-65
2022/03/28 00:04:40;;;;;;;15.60;7.00;;;;;;;3.95;71.04;98265.50;5025514;28;20037;-65
2022/03/28 00:07:07;;;;;;;16.92;6.95;;;;;;;3.67;71.97;98268.81;5023282;28;20421;-66
2022/03/28 00:09:34;;;;;;;15.05;7.13;;;;;;;3.63;72.21;98263.84;5026654;28;20053;-65
2022/03/28 00:12:00;;;;;;;16.38;7.93;;;;;;;3.64;72.38;98265.50;5023119;28;20124;-65
2022/03/28 00:14:27;;;;;;;12.20;6.63;;;;;;;3.69;72.66;98262.25;5025673;28;20034;-65
2022/03/28 00:16:55;;;;;;;15.13;7.15;;;;;;;3.70;72.20;98255.06;5023426;28;20053;-65
2022/03/28 00:19:21;;;;;;;18.63;7.20;;;;;;;3.60;72.66;98252.66;5024350;28;20037;-65
2022/03/28 00:21:48;;;;;;;13.30;6.63;;;;;;;3.58;72.72;98252.84;5025159;28;20045;-65
2022/03/28 00:24:15;;;;;;;13.13;7.50;;;;;;;3.45;73.10;98253.50;5024967;28;20040;-65
2022/03/28 00:26:42;;;;;;;14.32;6.85;;;;;;;3.34;73.50;98245.91;5024452;28;20041;-65
2022/03/28 00:29:08;;;;;;;11.93;7.35;;;;;;;3.21;73.59;98244.72;5024908;28;20382;-66
2022/03/28 00:31:35;;;;;;;15.45;7.50;;;;;;;3.13;74.12;98239.44;5023601;28;20662;-65
2022/03/28 00:34:01;;;;;;;13.95;6.85;;;;;;;3.18;74.50;98238.91;5026405;28;20060;-65
2022/03/28 00:36:28;;;;;;;14.10;7.75;;;;;;;3.31;73.87;98235.59;5023272;28;20095;-65
2022/03/28 00:38:55;;;;;;;16.40;8.25;;;;;;;3.42;73.75;98237.81;5024680;28;20460;-65
2022/03/28 00:41:26;;;;;;;16.30;7.82;;;;;;;3.44;73.28;98235.78;5023944;28;20479;-66
2022/03/28 00:43:54;;;;;;;14.55;7.43;;;;;;;3.63;72.88;98229.03;5024300;28;20045;-65
2022/03/28 00:46:20;;;;;;;10.48;5.95;;;;;;;3.64;72.52;98221.81;5023930;28;20452;-65
2022/03/28 00:48:47;;;;;;;15.65;6.70;;;;;;;3.55;72.80;98222.94;5024412;28;20041;-65
2022/03/28 00:51:15;;;;;;;12.93;6.70;;;;;;;3.46;72.67;98222.22;5024288;28;20037;-66
2022/03/28 00:53:42;;;;;;;15.05;6.88;;;;;;;3.54;73.55;98218.59;5029355;28;20056;-65
2022/03/28 00:56:08;;;;;;;13.57;6.93;;;;;;;3.54;73.02;98219.41;5022859;28;20088;-65
2022/03/28 00:58:35;;;;;;;17.80;7.32;;;;;;;3.43;72.81;98219.91;5031880;28;20037;-65
2022/03/28 01:01:02;;;;;;;15.07;6.55;;;;;;;3.36;73.12;98217.13;5028699;28;20046;-65
2022/03/28 01:03:29;;;;;;;13.63;7.43;;;;;;;3.34;73.38;98214.63;5028465;28;20550;-65
2022/03/28 01:05:56;;;;;;;16.15;7.53;;;;;;;3.46;72.68;98214.19;5028627;28;20042;-65
2022/03/28 01:08:23;;;;;;;15.05;7.55;;;;;;;3.40;72.62;98218.44;5027534;28;20049;-65
2022/03/28 01:10:53;;;;;;;13.90;7.20;;;;;;;3.34;73.28;98211.13;5027714;28;20049;-65
2022/03/28 01:13:20;;;;;;;13.63;7.35;;;;;;;3.42;72.62;98220.94;5028539;28;20053;-65
2022/03/28 01:15:47;;;;;;;17.08;7.32;;;;;;;3.37;72.84;98208.09;5028437;28;20566;-65
2022/03/28 01:18:15;;;;;;;13.40;6.70;;;;;;;3.34;72.72;98211.13;5026275;28;20068;-65
2022/03/28 01:20:41;;;;;;;17.58;7.53;;;;;;;3.28;72.73;98201.16;5028598;28;20049;-65
2022/03/28 01:23:09;;;;;;;15.85;6.47;;;;;;;3.28;73.18;98195.81;5029838;28;20041;-66
2022/03/28 01:25:36;;;;;;;17.00;7.03;;;;;;;3.30;72.76;98196.44;5045384;28;20041;-65
2022/03/28 01:28:04;;;;;;;16.10;7.22;;;;;;;3.29;72.88;98194.78;5030244;28;20103;-65
2022/03/28 01:30:32;;;;;;;15.02;7.07;;;;;;;3.25;72.90;98194.34;5027828;28;20053;-65
2022/03/28 01:33:00;;;;;;;13.75;7.05;;;;;;;3.30;72.95;98185.72;5026968;28;20536;-65
2022/03/28 01:35:34;;;;;;;16.23;7.15;;;;;;;3.40;72.48;98186.31;5028209;28;20416;-65
2022/03/28 01:38:04;;;;;;;13.90;7.75;;;;;;;3.39;72.44;98189.97;5033506;28;20460;-65
2022/03/28 01:40:39;;;;;;;16.00;7.70;;;;;;;3.56;72.20;98187.94;5026731;28;20045;-65
2022/03/28 01:43:07;;;;;;;13.13;7.25;;;;;;;3.57;72.21;98181.56;5022365;28;20725;-65
2022/03/28 01:45:33;;;;;;;12.75;7.30;;;;;;;3.56;71.97;98184.44;5020682;28;20041;-65
2022/03/28 01:48:00;;;;;;;18.08;8.25;;;;;;;3.61;72.38;98172.13;5015325;28;20050;-65
2022/03/28 01:50:27;;;;;;;18.20;8.00;;;;;;;3.62;71.36;98172.97;5025222;28;20049;-65
2022/03/28 01:52:53;;;;;;;15.18;6.82;;;;;;;3.72;71.28;98170.00;5031401;28;20052;-65
2022/03/28 01:55:20;;;;;;;15.40;8.85;;;;;;;3.63;71.30;98170.13;5027529;28;20041;-65
2022/03/28 01:57:47;;;;;;;13.20;6.65;;;;;;;3.58;71.23;98160.97;5023754;28;20045;-66
2022/03/28 02:00:16;;;;;;;18.55;7.95;;;;;;;3.59;71.40;98165.31;5025604;28;20423;-65
2022/03/28 02:02:44;;;;;;;13.70;8.20;;;;;;;3.57;71.49;98162.81;5026745;28;20045;-65
2022/03/28 02:05:13;;;;;;;12.63;7.07;;;;;;;3.69;70.95;98162.34;5027981;28;20115;-65
2022/03/28 02:07:41;;;;;;;14.00;7.35;;;;;;;3.69;70.91;98167.72;5025500;28;20116;-65
2022/03/28 02:10:09;;;;;;;18.17;8.27;;;;;;;3.73;70.05;98156.41;5026489;28;20045;-65
2022/03/28 02:12:37;;;;;;;16.85;7.80;;;;;;;3.71;70.22;98152.25;5024505;28;20041;-65
2022/03/28 02:15:06;;;;;;;14.38;8.82;;;;;;;3.63;70.85;98153.22;5026648;28;20042;-65
2022/03/28 02:17:36;;;;;;;15.20;7.43;;;;;;;3.54;70.53;98148.97;5026143;28;20060;-65
2022/03/28 02:20:08;;;;;;;17.92;7.00;;;;;;;3.60;70.44;98154.41;5026548;28;20052;-65
2022/03/28 02:22:36;;;;;;;14.13;6.47;;;;;;;3.62;70.25;98148.88;5026712;28;20045;-65
2022/03/28 02:25:04;;;;;;;15.30;7.88;;;;;;;3.64;69.92;98150.34;5027800;28;20041;-66
2022/03/28 02:27:32;;;;;;;14.38;6.35;;;;;;;3.59;70.13;98149.25;5026306;28;20037;-65
2022/03/28 02:29:58;;;;;;;14.43;7.07;;;;;;;3.60;69.70;98153.56;5024606;28;20046;-65
2022/03/28 02:32:25;;;;;;;15.40;7.47;;;;;;;3.61;69.72;98145.34;5026922;28;20053;-65
2022/03/28 02:34:51;;;;;;;15.25;7.47;;;;;;;3.59;69.72;98142.06;5026560;28;20559;-65
2022/03/28 02:37:18;;;;;;;14.95;6.95;;;;;;;3.65;69.34;98137.81;5027180;28;20040;-65
2022/03/28 02:39:45;;;;;;;14.13;6.88;;;;;;;3.60;69.44;98140.19;5032974;28;20049;-65
2022/03/28 02:42:11;;;;;;;15.10;7.25;;;;;;;3.44;70.11;98131.38;5025358;28;20095;-65
2022/03/28 02:44:38;;;;;;;16.45;7.85;;;;;;;3.35;70.42;98135.13;5025091;28;20048;-65
2022/03/28 02:47:05;;;;;;;16.67;8.02;;;;;;;3.27;70.73;98135.25;5026467;28;20049;-65
2022/03/28 02:49:32;;;;;;;14.82;7.10;;;;;;;3.28;70.43;98135.06;5026684;28;20041;-65
2022/03/28 02:51:59;;;;;;;13.45;7.15;;;;;;;3.31;70.21;98121.31;5026254;28;20045;-65
2022/03/28 02:54:25;;;;;;;19.77;7.63;;;;;;;3.48;69.56;98127.31;5026028;28;20037;-65
2022/03/28 02:56:52;;;;;;;16.00;6.55;;;;;;;3.34;69.72;98130.81;5025880;28;20042;-65
2022/03/28 02:59:18;;;;;;;12.32;6.55;;;;;;;3.31;69.94;98118.63;5025442;28;20045;-66
2022/03/28 03:01:46;;;;;;;15.35;7.80;;;;;;;3.28;70.22;98119.00;5024864;28;20045;-65
2022/03/28 03:04:13;;;;;;;14.88;7.80;;;;;;;3.29;70.00;98119.84;5026634;28;20030;-65
2022/03/28 03:06:39;;;;;;;14.50;6.70;;;;;;;3.32;69.48;98122.16;5026101;28;20037;-65
2022/03/28 03:09:06;;;;;;;14.85;6.43;;;;;;;3.28;70.05;98113.63;5025542;28;20043;-65
2022/03/28 03:11:32;;;;;;;15.52;7.25;;;;;;;3.34;69.73;98112.91;5026385;28;20091;-65
2022/03/28 03:13:59;;;;;;;12.15;6.47;;;;;;;3.65;68.25;98102.97;5024927;28;20049;-65
2022/03/28 03:16:25;;;;;;;14.15;6.47;;;;;;;3.88;67.24;98101.97;5025801;28;20456;-65
2022/03/28 03:18:52;;;;;;;14.35;7.40;;;;;;;4.11;66.45;98103.63;5026177;28;20121;-65
2022/03/28 03:21:19;;;;;;;13.55;7.68;;;;;;;4.02;66.47;98105.63;5037920;28;20548;-65
2022/03/28 03:23:46;;;;;;;13.52;6.72;;;;;;;3.84;67.19;98104.19;5026980;28;20045;-65
2022/03/28 03:26:12;;;;;;;13.48;7.43;;;;;;;4.12;65.83;98102.59;5025890;28;20041;-65
2022/03/28 03:28:39;;;;;;;14.77;7.32;;;;;;;4.42;64.62;98108.66;5023236;28;20044;-65
2022/03/28 03:31:06;;;;;;;12.07;6.65;;;;;;;4.46;64.29;98103.72;5025750;28;20057;-65
2022/03/28 03:33:33;;;;;;;13.32;7.43;;;;;;;4.24;65.44;98100.25;5026522;28;20037;-65
2022/03/28 03:36:01;;;;;;;14.85;7.13;;;;;;;3.97;66.51;98099.97;5024732;28;20042;-65
2022/03/28 03:38:28;;;;;;;18.23;7.75;;;;;;;3.83;67.07;98099.84;5025738;28;20117;-65
2022/03/28 03:40:55;;;;;;;14.05;7.38;;;;;;;3.72;67.70;98101.19;5025618;28;20050;-65
2022/03/28 03:43:22;;;;;;;18.15;7.65;;;;;;;3.94;66.69;98095.03;5023906;28;20052;-65
2022/03/28 03:45:48;;;;;;;13.18;7.05;;;;;;;3.87;67.07;98094.97;5025796;28;20057;-65
2022/03/28 03:48:15;;;;;;;17.52;7.90;;;;;;;3.61;67.94;98096.34;5024186;28;20413;-65
2022/03/28 03:50:42;;;;;;;17.27;8.10;;;;;;;3.48;68.61;98095.16;5025261;28;20045;-66
2022/03/28 03:53:09;;;;;;;15.00;8.07;;;;;;;3.42;68.76;98087.88;5024128;28;20045;-65
2022/03/28 03:55:36;;;;;;;12.77;7.30;;;;;;;3.38;69.27;98086.59;5024734;28;20037;-65
2022/03/28 03:58:03;;;;;;;18.90;8.80;;;;;;;3.47;68.58;98079.28;5022789;28;20037;-65
2022/03/28 04:00:30;;;;;;;20.85;7.82;;;;;;;3.50;68.60;98086.91;5009488;28;20800;-66
2022/03/28 04:02:56;;;;;;;16.00;8.63;;;;;;;3.38;69.01;98082.06;5027762;28;20416;-66
2022/03/28 04:05:23;;;;;;;15.05;7.18;;;;;;;3.43;68.92;98086.03;5013166;28;20041;-66
2022/03/28 04:07:50;;;;;;;14.43;7.18;;;;;;;3.83;67.12;98088.31;5014201;28;20090;-66
2022/03/28 04:10:17;;;;;;;18.17;8.00;;;;;;;3.95;66.64;98085.97;5022550;28;20068;-65
2022/03/28 04:12:43;;;;;;;15.30;7.55;;;;;;;3.98;66.30;98073.00;5024930;28;20148;-66
2022/03/28 04:15:10;;;;;;;18.13;7.80;;;;;;;3.93;66.64;98088.81;5022422;28;20068;-65
2022/03/28 04:17:41;;;;;;;16.08;6.93;;;;;;;3.88;66.26;98091.25;5022919;28;20050;-65
2022/03/28 04:20:09;;;;;;;13.50;7.65;;;;;;;3.76;67.12;98089.06;5023929;28;20053;-66
2022/03/28 04:22:36;;;;;;;15.25;8.13;;;;;;;3.75;67.27;98089.25;5022057;28;20041;-66
2022/03/28 04:25:03;;;;;;;18.60;7.32;;;;;;;3.75;66.93;98087.41;5023830;28;20065;-66
2022/03/28 04:27:30;;;;;;;12.25;7.07;;;;;;;3.76;66.81;98089.06;5018044;28;20033;-65
2022/03/28 04:29:56;;;;;;;16.05;7.65;;;;;;;3.73;67.16;98089.44;5025888;28;20041;-66
2022/03/28 04:32:23;;;;;;;15.20;7.65;;;;;;;3.71;66.81;98085.31;5027397;28;20416;-65
2022/03/28 04:34:50;;;;;;;18.10;8.27;;;;;;;3.64;67.36;98085.22;5029019;28;20041;-66
2022/03/28 04:37:16;;;;;;;16.20;8.15;;;;;;;3.63;67.24;98088.94;5028511;28;20127;-65
2022/03/28 04:39:43;;;;;;;21.42;8.77;;;;;;;3.59;67.29;98087.66;5029627;28;20470;-65
2022/03/28 04:42:10;;;;;;;20.88;8.10;;;;;;;3.61;67.12;98082.94;5026271;28;20052;-66
2022/03/28 04:44:36;;;;;;;13.68;6.90;;;;;;;3.54;67.20;98087.41;5029046;28;20924;-66
2022/03/28 04:47:03;;;;;;;17.35;8.35;;;;;;;3.46;67.39;98078.44;5028437;28;20464;-65
2022/03/28 04:49:29;;;;;;;15.02;7.60;;;;;;;3.50;67.62;98093.13;5028225;28;20052;-65
2022/03/28 04:51:56;;;;;;;20.33;7.85;;;;;;;3.34;67.95;98085.31;5028935;28;20041;-65
2022/03/28 04:54:23;;;;;;;15.85;7.65;;;;;;;3.27;68.66;98084.41;5029685;28;20302;-66
2022/03/28 04:56:49;;;;;;;15.20;7.47;;;;;;;3.32;68.54;98087.34;5027477;28;20040;-66
2022/03/28 04:59:16;;;;;;;29.10;9.52;;;;;;;3.32;68.54;98092.72;5028083;28;20508;-65
2022/03/28 05:01:42;;;;;;;15.95;8.00;;;;;;;3.25;68.94;98092.63;5027002;28;20103;-65
2022/03/28 05:04:09;;;;;;;16.58;7.45;;;;;;;3.30;68.49;98086.69;5028248;28;20045;-66
2022/03/28 05:06:35;;;;;;;15.43;7.82;;;;;;;3.41;68.12;98085.38;5025498;28;20041;-66
2022/03/28 05:09:02;;;;;;;17.35;7.82;;;;;;;3.41;68.27;98088.06;5027019;28;20052;-66
2022/03/28 05:11:30;;;;;;;14.93;8.27;;;;;;;3.31;68.28;98089.19;5018513;28;20041;-65
2022/03/28 05:14:00;;;;;;;20.60;10.15;;;;;;;3.28;68.41;98092.22;5024855;28;20508;-65
2022/03/28 05:16:29;;;;;;;19.33;8.02;;;;;;;3.23;68.14;98078.59;5023808;28;20045;-65
2022/03/28 05:18:56;;;;;;;17.45;8.35;;;;;;;3.24;68.58;98088.25;5025287;28;20049;-66
2022/03/28 05:21:22;;;;;;;12.93;7.13;;;;;;;3.11;68.97;98084.44;5023230;28;20052;-66
2022/03/28 05:23:49;;;;;;;17.30;6.85;;;;;;;3.11;69.29;98086.25;5025108;28;20589;-66
2022/03/28 05:26:15;;;;;;;18.45;8.35;;;;;;;3.13;69.45;98081.53;5023712;28;20422;-65
2022/03/28 05:28:42;;;;;;;19.42;7.75;;;;;;;3.18;68.85;98089.88;5024855;28;20049;-65
2022/03/28 05:31:08;;;;;;;18.08;8.27;;;;;;;3.32;68.65;98092.72;5027755;28;20144;-66
2022/03/28 05:33:35;;;;;;;14.88;7.13;;;;;;;3.30;68.43;98089.38;5024040;28;20069;-66
2022/03/28 05:36:02;;;;;;;15.63;8.02;;;;;;;3.23;68.95;98086.63;5024787;28;20519;-66
2022/03/28 05:38:28;;;;;;;22.80;8.18;;;;;;;3.31;68.37;98083.84;5024853;28;20042;-66
2022/03/28 05:40:58;;;;;;;16.63;7.68;;;;;;;3.28;68.24;98080.72;5024310;28;20068;-66
2022/03/28 05:43:25;;;;;;;11.82;6.82;;;;;;;3.31;68.32;98075.81;5022241;28;20468;-66
2022/03/28 05:45:52;;;;;;;16.40;7.40;;;;;;;3.37;67.77;98082.25;5019837;28;20038;-66
2022/03/28 05:48:19;;;;;;;16.05;7.45;;;;;;;3.47;67.27;98093.50;5025310;28;20479;-66
2022/03/28 05:50:46;;;;;;;18.80;7.85;;;;;;;3.63;67.17;98081.75;5015559;28;20042;-66
2022/03/28 05:53:13;;;;;;;19.13;6.68;;;;;;;3.74;66.91;98080.41;5019586;28;20448;-66
2022/03/28 05:55:41;;;;;;;15.88;7.53;;;;;;;3.78;66.43;98083.53;5021009;28;20092;-66
2022/03/28 05:58:08;;;;;;;19.08;8.30;;;;;;;3.76;66.64;98081.03;5024966;28;20045;-66
2022/03/28 06:00:36;;;;;;;19.38;7.90;;;;;;;3.86;66.29;98080.72;5024522;28;20041;-66
2022/03/28 06:03:08;;;;;;;19.42;7.80;;;;;;;3.99;65.57;98090.75;5019667;28;20774;-66
2022/03/28 06:05:54;;;;;;;15.63;7.60;;;;;;;4.11;65.66;98082.19;5023378;28;20060;-66
2022/03/28 06:08:21;;;;;;;17.13;8.77;;;;;;;4.14;65.32;98095.22;5025039;28;20049;-66
2022/03/28 06:10:48;;;;;;;16.92;7.35;;;;;;;4.25;65.13;98085.81;5024309;28;20409;-66
2022/03/28 06:13:16;;;;;;;20.20;8.45;;;;;;;4.32;64.97;98092.06;5028449;28;20052;-66
2022/03/28 06:15:43;;;;;;;18.88;7.95;;;;;;;4.44;64.73;98095.03;5027955;28;20044;-66
2022/03/28 06:18:10;;;;;;;22.20;7.82;;;;;;;4.47;64.75;98099.19;5006224;28;20429;-66
2022/03/28 06:20:37;;;;;;;18.38;7.78;;;;;;;4.49;65.51;98099.84;5018577;28;20548;-68
2022/03/28 06:23:04;;;;;;;17.88;8.43;;;;;;;4.47;65.73;98091.16;5022665;28;20045;-68
2022/03/28 06:25:30;;;;;;;27.23;9.52;;;;;;;4.52;65.58;98099.44;5021886;28;20067;-68
2022/03/28 06:27:59;;;;;;;17.70;9.25;;;;;;;4.63;64.89;98101.59;5019655;28;20037;-67
2022/03/28 06:30:26;;;;;;;21.75;8.85;;;;;;;4.87;64.45;98098.66;5021865;28;20057;-67
2022/03/28 06:32:52;;;;;;;18.70;7.03;;;;;;;5.14;63.43;98101.47;5023001;28;20501;-68
2022/03/28 06:35:19;;;;;;;19.92;7.90;;;;;;;5.41;62.55;98104.28;5024714;28;20057;-67
2022/03/28 06:37:50;;;;;;;18.60;8.02;;;;;;;5.55;62.21;98097.09;5027496;28;20033;-67
2022/03/28 06:40:17;;;;;;;16.43;8.40;;;;;;;5.69;61.97;98095.28;5007312;28;20050;-68
2022/03/28 06:42:44;;;;;;;17.42;7.68;;;;;;;5.69;62.46;98093.44;5007114;28;20056;-67
2022/03/28 06:45:11;;;;;;;14.60;7.85;;;;;;;5.72;62.50;98095.69;5024594;28;20543;-68
2022/03/28 06:47:38;;;;;;;17.08;8.60;;;;;;;5.71;62.25;98093.22;5026118;28;20645;-66
2022/03/28 06:50:07;;;;;;;15.55;7.15;;;;;;;5.69;62.42;98101.50;5026237;28;20045;-67
2022/03/28 06:52:34;;;;;;;15.30;7.45;;;;;;;5.71;62.45;98098.59;5037527;28;20451;-68
2022/03/28 06:55:03;;;;;;;15.05;8.73;;;;;;;5.76;62.67;98096.16;5037779;28;20049;-67
2022/03/28 06:57:29;;;;;;;16.98;8.00;;;;;;;5.79;62.85;98095.72;5025122;28;20455;-67
2022/03/28 06:59:56;;;;;;;16.55;8.02;;;;;;;6.14;61.54;98088.56;5027013;28;20052;-66
2022/03/28 07:02:22;;;;;;;20.65;8.45;;;;;;;6.32;61.55;98078.03;5027169;28;20045;-66
2022/03/28 07:04:49;;;;;;;20.80;8.70;;;;;;;6.47;61.35;98079.69;5006685;28;20126;-67
2022/03/28 07:07:16;;;;;;;17.50;7.82;;;;;;;6.62;60.40;98083.00;5014930;28;20072;-67
2022/03/28 07:09:42;;;;;;;20.25;8.90;;;;;;;6.81;59.53;98079.66;5025899;28;20049;-66
2022/03/28 07:12:09;;;;;;;18.55;7.88;;;;;;;6.81;59.99;98083.16;5041460;28;20516;-67
2022/03/28 07:14:36;;;;;;;17.98;7.22;;;;;;;6.97;59.54;98076.50;5026826;28;20559;-66
2022/03/28 07:17:03;;;;;;;13.60;7.55;;;;;;;6.99;58.68;98076.28;5024191;28;20041;-66
2022/03/28 07:19:29;;;;;;;18.75;8.93;;;;;;;7.09;58.57;98081.25;5026379;28;20053;-68
2022/03/28 07:21:56;;;;;;;17.45;7.10;;;;;;;7.12;58.60;98088.91;5024591;28;20412;-67
2022/03/28 07:24:23;;;;;;;14.57;7.18;;;;;;;7.14;58.90;98087.66;5022026;28;20449;-68
2022/03/28 07:26:50;;;;;;;19.23;8.60;;;;;;;7.22;58.78;98088.47;5018712;28;20048;-66
2022/03/28 07:29:21;;;;;;;15.55;8.52;;;;;;;7.40;57.32;98085.91;5022707;28;20067;-68
2022/03/28 07:31:48;;;;;;;19.05;8.73;;;;;;;7.60;55.53;98087.69;5022911;28;20045;-67
2022/03/28 07:34:32;;;;;;;20.52;9.02;;;;;;;7.93;55.44;98093.94;5023171;28;20041;-68
2022/03/28 07:37:02;;;;;;;18.08;8.07;;;;;;;8.17;54.72;98080.69;5022823;28;20056;-66
2022/03/28 07:39:29;;;;;;;15.95;8.40;;;;;;;8.44;54.80;98073.22;5022687;28;20045;-66
2022/03/28 07:41:56;;;;;;;16.80;7.88;;;;;;;8.50;53.70;98071.50;5022598;28;20049;-66
2022/03/28 07:44:22;;;;;;;16.48;8.55;;;;;;;8.76;52.10;98076.91;5022811;28;20051;-66
2022/03/28 07:46:49;;;;;;;15.23;7.68;;;;;;;9.06;50.71;98077.03;5021946;28;20046;-66
2022/03/28 07:49:18;;;;;;;17.73;8.55;;;;;;;9.32;49.66;98072.38;5022509;28;20045;-67
2022/03/28 07:51:45;;;;;;;16.38;7.97;;;;;;;9.35;48.42;98074.63;5027250;28;20056;-67
2022/03/28 07:54:11;;;;;;;22.40;8.82;;;;;;;9.52;48.63;98071.28;5028762;28;20045;-66
2022/03/28 07:56:38;;;;;;;15.18;8.45;;;;;;;9.55;47.79;98068.13;5022612;28;20053;-66
2022/03/28 07:59:07;;;;;;;15.95;7.70;;;;;;;9.65;47.48;98067.59;5022475;28;20045;-66
2022/03/28 08:01:34;;;;;;;18.98;8.48;;;;;;;9.99;46.74;98073.34;5022041;28;20049;-66
2022/03/28 08:04:01;;;;;;;17.08;8.77;;;;;;;10.19;46.92;98072.22;5023080;28;20074;-65
2022/03/28 08:06:28;;;;;;;14.88;8.07;;;;;;;10.41;46.87;98061.69;5020943;28;20052;-66
2022/03/28 08:08:55;;;;;;;19.13;8.85;;;;;;;10.54;46.79;98055.22;5022978;28;20041;-65
2022/03/28 08:11:22;;;;;;;19.00;8.10;;;;;;;10.64;46.37;98049.22;5021954;28;20064;-66
2022/03/28 08:13:48;;;;;;;16.33;8.25;;;;;;;10.76;45.51;98051.13;5022663;28;20056;-66
2022/03/28 08:16:15;;;;;;;16.55;8.75;;;;;;;10.82;45.12;98052.03;5021897;28;20045;-66
2022/03/28 08:18:42;;;;;;;19.00;8.63;;;;;;;10.97;44.58;98052.38;5021632;28;20064;-66
2022/03/28 08:21:09;;;;;;;18.00;7.93;;;;;;;11.15;43.88;98050.59;5022606;28;20049;-66
2022/03/28 08:23:36;;;;;;;13.85;7.65;;;;;;;11.32;43.08;98048.78;5023778;28;20054;-65
2022/03/28 08:26:04;;;;;;;18.92;8.60;;;;;;;11.35;41.50;98047.47;5021684;28;20817;-66
2022/03/28 08:28:32;;;;;;;18.55;8.00;;;;;;;11.49;41.55;98045.31;5023564;28;20057;-66
2022/03/28 08:30:59;;;;;;;16.45;7.78;;;;;;;11.49;42.08;98041.75;5021166;28;20049;-66
2022/03/28 08:33:26;;;;;;;16.42;8.43;;;;;;;11.56;43.49;98039.75;5023636;28;20045;-65
2022/03/28 08:35:53;;;;;;;20.13;8.40;;;;;;;11.73;42.84;98044.38;5021102;28;20048;-66
2022/03/28 08:38:21;;;;;;;19.45;8.73;;;;;;;11.92;42.87;98040.41;5022824;28;20048;-65
2022/03/28 08:40:48;;;;;;;22.02;8.85;;;;;;;11.91;42.81;98038.75;5021273;28;20951;-66
2022/03/28 08:43:22;;;;;;;15.50;8.23;;;;;;;11.89;42.54;98038.19;5022708;28;20049;-66
2022/03/28 08:45:50;;;;;;;18.75;8.38;;;;;;;12.15;42.06;98037.81;5021570;28;20093;-66
2022/03/28 08:48:18;;;;;;;20.08;8.95;;;;;;;12.23;42.63;98042.84;5021759;28;20056;-67
2022/03/28 08:50:47;;;;;;;17.05;8.10;;;;;;;12.26;42.24;98033.38;5029997;28;20444;-66
2022/03/28 08:53:14;;;;;;;18.15;9.43;;;;;;;12.28;41.83;98034.81;5025569;28;20037;-66
2022/03/28 08:55:42;;;;;;;18.08;8.80;;;;;;;12.63;41.17;98030.16;5033885;28;20061;-66
2022/03/28 08:58:13;;;;;;;20.17;8.75;;;;;;;12.83;40.93;98029.63;5021790;28;20046;-66
2022/03/28 09:00:41;;;;;;;;;;;;;;;12.93;40.45;98028.94;5022263;28;20096;-66
2022/03/28 09:03:08;;;;;;;18.15;8.25;;;;;;;13.02;40.19;98029.34;5021319;28;20427;-66
2022/03/28 09:05:38;;;;;;;21.65;8.85;;;;;;;13.10;40.12;98014.47;5024471;28;20041;-63
2022/03/28 09:08:07;;;;;;;18.42;8.48;;;;;;;13.19;39.81;98023.84;5008929;28;20398;-66
2022/03/28 09:10:43;;;;;;;22.25;9.23;;;;;;;13.25;39.60;98013.84;5030364;28;20049;-67
2022/03/28 09:13:12;;;;;;;18.27;8.88;;;;;;;13.23;39.89;98016.00;5008037;28;20049;-66
2022/03/28 09:15:57;;;;;;;18.38;8.55;;;;;;;13.37;39.70;98009.09;5019400;28;20041;-66
2022/03/28 09:18:25;;;;;;;24.60;8.65;;;;;;;13.44;39.97;98008.91;5019646;28;20041;-66
2022/03/28 09:21:03;;;;;;;23.70;9.50;;;;;;;13.64;39.06;98007.50;5025208;28;20050;-66
2022/03/28 09:23:33;;;;;;;22.42;9.15;;;;;;;13.75;39.44;98005.72;5025390;28;20045;-66
2022/03/28 09:26:21;;;;;;;21.40;9.20;;;;;;;13.99;38.93;97999.94;5030385;28;20076;-66
2022/03/28 09:28:53;;;;;;;21.42;9.60;;;;;;;14.01;39.01;97995.06;5034828;28;20077;-65
2022/03/28 09:31:21;;;;;;;19.73;9.70;;;;;;;14.03;39.20;97992.88;5025657;28;20053;-66
2022/03/28 09:34:09;;;;;;;21.30;9.35;;;;;;;14.14;39.69;97989.19;5023128;28;20049;-66
2022/03/28 09:36:36;;;;;;;21.20;9.02;;;;;;;14.26;38.95;97990.91;5025562;28;20129;-66
2022/03/28 09:39:04;;;;;;;23.33;10.15;;;;;;;14.23;38.55;97980.53;5020290;28;20100;-65
2022/03/28 09:41:32;;;;;;;22.33;9.55;;;;;;;14.21;38.60;97979.94;5019189;28;20064;-68
2022/03/28 09:43:58;;;;;;;26.58;10.55;;;;;;;14.23;38.83;97972.34;5029221;28;20068;-63
2022/03/28 09:46:29;;;;;;;19.13;9.00;;;;;;;14.46;39.25;97967.59;5023742;28;20795;-66
2022/03/28 09:48:59;;;;;;;18.73;9.82;;;;;;;14.77;37.43;97963.19;5026215;28;20037;-66
2022/03/28 09:51:27;;;;;;;17.65;8.98;;;;;;;14.86;37.41;97957.22;5024596;28;20496;-66
2022/03/28 09:53:54;;;;;;;20.90;9.68;;;;;;;14.90;37.62;97958.34;5025300;28;20563;-66
2022/03/28 09:56:21;;;;;;;20.17;9.50;;;;;;;14.85;37.29;97955.59;5024010;28;20045;-66
2022/03/28 09:58:59;;;;;;;21.55;9.15;;;;;;;14.88;37.14;97946.84;5025137;28;20041;-66
2022/03/28 10:01:31;;;;;;;17.65;9.50;;;;;;;14.96;36.79;97949.06;5024263;28;20041;-65
2022/03/28 10:04:05;;;;;;;20.13;9.73;;;;;;;14.97;36.74;97941.72;5025682;28;20049;-66
2022/03/28 10:06:34;;;;;;;17.13;8.82;;;;;;;14.95;37.31;97944.72;5024398;28;20641;-66
2022/03/28 10:09:01;;;;;;;9.48;5.60;;;;;;;15.04;45.33;97940.38;5024716;28;20210;-66
2022/03/28 10:11:29;;;;;;;18.45;9.40;;;;;;;15.19;37.08;97936.09;5022933;28;20045;-65
2022/03/28 10:13:56;;;;;;;17.88;8.82;;;;;;;15.41;37.48;97929.59;5028694;28;20041;-65
2022/03/28 10:16:27;;;;;;;18.75;9.93;;;;;;;15.50;36.48;97932.59;5032573;28;20145;-66
2022/03/28 10:18:54;;;;;;;18.80;9.18;;;;;;;15.57;38.51;97933.97;5029211;28;20123;-65
2022/03/28 10:21:47;;;;;;;18.48;9.30;;;;;;;15.71;37.12;97927.97;5023217;28;20701;-65
2022/03/28 10:24:18;;;;;;;23.45;10.18;;;;;;;15.99;36.62;97928.53;5028180;28;20629;-63
2022/03/28 10:26:48;;;;;;;16.90;9.90;;;;;;;16.12;35.99;97924.47;5030094;28;20045;-64
2022/03/28 10:29:17;;;;;;;24.70;10.23;;;;;;;16.17;36.22;97931.81;5023730;28;20049;-65
2022/03/28 10:32:00;;;;;;;20.77;10.18;;;;;;;16.08;35.91;97923.38;5033345;28;20106;-64
2022/03/28 10:34:39;;;;;;;22.58;10.40;;;;;;;16.07;36.96;97916.28;5024823;28;20053;-65
2022/03/28 10:37:25;;;;;;;20.70;10.00;;;;;;;16.18;37.83;97908.88;5026546;28;20044;-64
2022/03/28 10:40:12;;;;;;;23.20;10.88;;;;;;;16.27;37.52;97909.13;5024906;28;20053;-64
2022/03/28 10:42:47;;;;;;;20.45;10.27;;;;;;;16.27;37.32;97904.50;5023629;28;20076;-64
2022/03/28 10:45:19;;;;;;;24.23;11.60;;;;;;;16.24;37.53;97896.84;5022409;28;20052;-64
2022/03/28 10:47:51;;;;;;;22.30;9.98;;;;;;;16.41;37.26;97893.81;5023377;28;20484;-64
2022/03/28 10:50:20;;;;;;;18.17;10.15;;;;;;;16.52;37.57;97889.94;5023539;28;20053;-64
2022/03/28 10:53:09;;;;;;;20.80;10.75;;;;;;;16.67;37.55;97888.25;5023490;28;20057;-64
2022/03/28 10:55:56;;;;;;;23.10;10.82;;;;;;;16.76;37.16;97888.47;5013189;28;20441;-63
2022/03/28 10:58:35;;;;;;;18.35;10.32;;;;;;;16.68;36.36;97887.16;5026927;28;20048;-64
2022/03/28 11:01:07;;;;;;;21.15;10.40;;;;;;;16.80;36.84;97880.56;5029160;28;20041;-63
2022/03/28 11:03:40;;;;;;;23.60;9.90;;;;;;;16.83;36.83;97882.69;5026473;28;20052;-64
2022/03/28 11:06:08;;;;;;;24.15;11.43;;;;;;;16.74;36.58;97882.47;5029252;28;20049;-64
2022/03/28 11:08:43;;;;;;;19.35;10.98;;;;;;;16.74;36.84;97874.28;5025780;28;20045;-64
2022/03/28 11:11:17;;;;;;;21.60;11.30;;;;;;;16.85;36.72;97870.38;5027471;28;20425;-64
2022/03/28 11:14:08;;;;;;;21.35;10.32;;;;;;;16.75;36.66;97865.81;5035781;28;20052;-65
2022/03/28 11:16:50;;;;;;;17.45;9.80;;;;;;;16.67;36.04;97866.38;5030177;28;20046;-63
2022/03/28 11:19:32;;;;;;;22.65;10.50;;;;;;;16.66;36.78;97862.00;5018108;28;20049;-63
2022/03/28 11:22:08;;;;;;;17.00;9.55;;;;;;;16.78;35.89;97853.47;5016573;28;20092;-63
2022/03/28 11:24:56;;;;;;;18.48;10.65;;;;;;;16.76;36.59;97852.94;5020075;28;20041;-62
2022/03/28 11:27:31;;;;;;;21.42;10.20;;;;;;;16.76;35.67;97844.72;5018128;28;20046;-63
2022/03/28 11:30:11;;;;;;;21.02;11.25;;;;;;;16.90;36.68;97851.22;5023229;28;20061;-62
2022/03/28 11:32:39;;;;;;;22.77;10.45;;;;;;;17.05;35.69;97841.31;5023265;28;20056;-62
2022/03/28 11:35:09;;;;;;;21.38;10.32;;;;;;;17.09;35.44;97847.88;5022936;28;20048;-63
2022/03/28 11:37:36;;;;;;;24.88;11.27;;;;;;;17.31;35.97;97840.34;5022810;28;20056;-62